createdAt,value
2019-03-29T00:02:17.479Z,79.00
2019-03-29T00:04:47.273Z,79.00
2019-03-29T00:07:17.099Z,79.10
2019-03-29T00:09:46.883Z,79.20
2019-03-29T00:12:16.697Z,79.30
2019-03-29T00:14:46.519Z,79.40
2019-03-29T00:17:16.395Z,79.40
2019-03-29T00:19:46.191Z,79.50
2019-03-29T00:22:15.983Z,79.40
2019-03-29T00:24:45.851Z,79.50
2019-03-29T00:27:15.637Z,80.00
2019-03-29T00:29:45.441Z,79.40
2019-03-29T00:32:15.221Z,79.40
2019-03-29T00:34:45.036Z,79.50
2019-03-29T00:37:14.821Z,79.60
2019-03-29T00:39:44.635Z,79.60
2019-03-29T00:42:14.421Z,79.80
2019-03-29T00:44:44.210Z,79.90
2019-03-29T00:47:13.993Z,80.00
2019-03-29T00:49:43.795Z,80.10
2019-03-29T00:52:13.575Z,80.10
2019-03-29T00:54:43.375Z,80.10
2019-03-29T00:57:13.159Z,80.20
2019-03-29T00:59:43.043Z,80.30
2019-03-29T01:02:12.828Z,80.40
2019-03-29T01:04:42.700Z,80.50
2019-03-29T01:07:12.469Z,80.50
2019-03-29T01:09:42.279Z,80.50
2019-03-29T01:12:12.133Z,80.50
2019-03-29T01:14:42.870Z,80.40
2019-03-29T01:17:12.762Z,80.40
2019-03-29T01:19:42.564Z,80.40
2019-03-29T01:22:12.351Z,80.50
2019-03-29T01:24:42.179Z,80.70
2019-03-29T01:27:12.326Z,80.40
2019-03-29T01:29:42.172Z,80.50
2019-03-29T01:32:11.966Z,80.50
2019-03-29T01:34:42.964Z,80.70
2019-03-29T01:37:12.918Z,81.20
2019-03-29T01:39:43.021Z,81.40
2019-03-29T01:42:12.878Z,81.50
2019-03-29T01:44:42.745Z,81.40
2019-03-29T01:47:12.538Z,81.50
2019-03-29T01:49:42.394Z,81.50
2019-03-29T01:52:12.270Z,81.50
2019-03-29T01:54:42.053Z,81.40
2019-03-29T01:57:11.877Z,81.50
2019-03-29T01:59:42.329Z,81.50
2019-03-29T02:02:12.839Z,81.50
2019-03-29T02:04:42.634Z,81.70
2019-03-29T02:07:12.443Z,81.90
2019-03-29T02:09:42.243Z,81.90
2019-03-29T02:12:12.014Z,82.20
2019-03-29T02:14:41.814Z,83.00
2019-03-29T02:17:11.607Z,82.50
2019-03-29T02:19:41.463Z,82.40
2019-03-29T02:22:11.251Z,82.50
2019-03-29T02:24:41.055Z,82.60
2019-03-29T02:27:10.853Z,82.70
2019-03-29T02:29:40.649Z,82.80
2019-03-29T02:32:10.432Z,82.70
2019-03-29T02:34:40.225Z,82.90
2019-03-29T02:37:11.007Z,83.00
2019-03-29T02:39:40.807Z,83.00
2019-03-29T02:42:10.600Z,83.00
2019-03-29T02:44:40.381Z,82.90
2019-03-29T02:47:10.182Z,82.90
2019-03-29T02:49:40.480Z,82.70
2019-03-29T02:52:10.656Z,82.70
2019-03-29T02:54:40.432Z,83.10
2019-03-29T02:57:10.312Z,83.10
2019-03-29T02:59:40.161Z,82.90
2019-03-29T03:02:09.964Z,83.10
2019-03-29T03:04:39.746Z,83.20
2019-03-29T03:07:09.550Z,83.20
2019-03-29T03:09:39.324Z,83.30
2019-03-29T03:12:09.128Z,83.20
2019-03-29T03:14:38.918Z,83.00
2019-03-29T03:17:08.759Z,82.90
2019-03-29T03:19:38.599Z,83.20
2019-03-29T03:22:08.425Z,83.10
2019-03-29T03:24:38.227Z,83.50
2019-03-29T03:27:08.038Z,83.70
2019-03-29T03:29:37.825Z,83.60
2019-03-29T03:32:07.622Z,83.70
2019-03-29T03:34:37.426Z,83.80
2019-03-29T03:37:07.377Z,84.40
2019-03-29T03:39:37.213Z,84.00
2019-03-29T03:42:07.057Z,84.30
2019-03-29T03:44:36.930Z,85.00
2019-03-29T03:47:06.718Z,84.50
2019-03-29T03:49:36.507Z,84.30
2019-03-29T03:52:06.283Z,84.20
2019-03-29T03:54:36.854Z,84.10
2019-03-29T03:57:06.709Z,84.00
2019-03-29T03:59:37.146Z,84.00
2019-03-29T04:02:06.960Z,84.20
2019-03-29T04:04:38.147Z,84.40
2019-03-29T04:07:07.994Z,84.40
2019-03-29T04:09:49.361Z,84.30
2019-03-29T04:12:09.281Z,84.30
2019-03-29T04:14:40.154Z,84.20
2019-03-29T04:17:09.944Z,84.20
2019-03-29T04:19:39.774Z,84.20
2019-03-29T04:22:09.551Z,84.20
2019-03-29T04:24:39.374Z,84.20
2019-03-29T04:27:09.185Z,84.20
2019-03-29T04:29:38.973Z,84.30
2019-03-29T04:32:08.774Z,84.60
2019-03-29T04:34:38.565Z,84.50
2019-03-29T04:37:08.376Z,84.30
2019-03-29T04:39:38.159Z,84.40
2019-03-29T04:42:07.953Z,84.40
2019-03-29T04:44:37.742Z,84.30
2019-03-29T04:47:07.544Z,84.40
2019-03-29T04:49:37.326Z,84.40
2019-03-29T04:52:07.107Z,84.50
2019-03-29T04:54:36.896Z,84.50
2019-03-29T04:57:06.686Z,84.50
2019-03-29T04:59:36.476Z,84.30
2019-03-29T05:02:06.255Z,84.40
2019-03-29T05:04:36.054Z,84.30
2019-03-29T05:07:06.809Z,84.40
2019-03-29T05:09:36.628Z,84.50
2019-03-29T05:12:06.410Z,84.60
2019-03-29T05:14:36.216Z,84.50
2019-03-29T05:17:06.003Z,84.60
2019-03-29T05:19:35.803Z,84.50
2019-03-29T05:22:05.595Z,84.70
2019-03-29T05:24:35.388Z,84.70
2019-03-29T05:27:05.201Z,84.70
2019-03-29T05:29:34.972Z,84.70
2019-03-29T05:32:04.763Z,84.50
2019-03-29T05:34:34.553Z,84.60
2019-03-29T05:37:04.352Z,84.60
2019-03-29T05:39:34.155Z,84.50
2019-03-29T05:42:03.947Z,84.50
2019-03-29T05:44:33.735Z,84.30
2019-03-29T05:47:03.627Z,84.00
2019-03-29T05:49:33.409Z,84.60
2019-03-29T05:52:03.276Z,84.70
2019-03-29T05:54:33.073Z,84.70
2019-03-29T05:57:02.874Z,84.70
2019-03-29T05:59:33.742Z,84.80
2019-03-29T06:02:03.566Z,84.80
2019-03-29T06:04:33.338Z,84.70
2019-03-29T06:07:03.140Z,84.60
2019-03-29T06:09:34.999Z,84.50
2019-03-29T06:12:04.490Z,84.50
2019-03-29T06:14:34.308Z,84.40
2019-03-29T06:17:04.157Z,84.20
2019-03-29T06:19:33.952Z,84.30
2019-03-29T06:22:03.773Z,84.30
2019-03-29T06:24:33.542Z,84.00
2019-03-29T06:27:03.342Z,84.20
2019-03-29T06:29:33.134Z,83.90
2019-03-29T06:32:03.873Z,83.90
2019-03-29T06:34:33.732Z,83.90
2019-03-29T06:37:03.780Z,83.60
2019-03-29T06:39:33.631Z,83.50
2019-03-29T06:42:03.498Z,83.40
2019-03-29T06:44:33.290Z,83.40
2019-03-29T06:47:03.148Z,83.10
2019-03-29T06:49:32.948Z,83.00
2019-03-29T06:52:02.726Z,82.90
2019-03-29T06:54:32.520Z,83.20
2019-03-29T06:57:02.309Z,83.20
2019-03-29T06:59:32.115Z,83.00
2019-03-29T07:02:01.921Z,83.10
2019-03-29T07:04:31.724Z,82.90
2019-03-29T07:07:01.541Z,82.80
2019-03-29T07:09:31.333Z,82.40
2019-03-29T07:12:01.132Z,82.40
2019-03-29T07:14:30.928Z,82.40
2019-03-29T07:17:00.724Z,82.30
2019-03-29T07:19:30.520Z,82.40
2019-03-29T07:22:00.340Z,82.40
2019-03-29T07:24:30.119Z,81.70
2019-03-29T07:26:59.922Z,82.00
2019-03-29T07:29:29.698Z,82.10
2019-03-29T07:31:59.507Z,82.30
2019-03-29T07:34:29.284Z,82.20
2019-03-29T07:36:59.118Z,82.10
2019-03-29T07:39:28.882Z,81.50
2019-03-29T07:41:58.703Z,81.70
2019-03-29T07:44:28.478Z,81.70
2019-03-29T07:46:58.270Z,81.90
2019-03-29T07:49:28.066Z,81.80
2019-03-29T07:51:58.818Z,81.70
2019-03-29T07:54:28.603Z,81.30
2019-03-29T07:56:58.414Z,81.30
2019-03-29T07:59:28.190Z,81.10
2019-03-29T08:01:57.984Z,80.80
2019-03-29T08:04:27.771Z,80.80
2019-03-29T08:06:57.565Z,80.80
2019-03-29T08:09:27.635Z,79.80
2019-03-29T08:11:57.522Z,79.40
2019-03-29T08:14:27.348Z,79.10
2019-03-29T08:16:57.143Z,79.10
2019-03-29T08:19:26.955Z,78.70
2019-03-29T08:21:57.925Z,78.70
2019-03-29T08:24:27.941Z,78.50
2019-03-29T08:26:57.743Z,78.00
2019-03-29T08:29:27.547Z,78.40
2019-03-29T08:31:57.338Z,77.90
2019-03-29T08:34:27.147Z,77.50
2019-03-29T08:36:56.944Z,77.60
2019-03-29T08:39:28.263Z,77.50
2019-03-29T08:42:00.481Z,77.60
2019-03-29T08:44:29.923Z,77.70
2019-03-29T08:46:59.785Z,77.50
2019-03-29T08:49:29.587Z,77.40
2019-03-29T08:51:59.463Z,77.40
2019-03-29T08:54:29.252Z,77.30
2019-03-29T08:56:59.083Z,76.80
2019-03-29T08:59:28.874Z,77.10
2019-03-29T09:01:58.819Z,76.80
2019-03-29T09:04:28.629Z,76.70
2019-03-29T09:06:58.421Z,76.40
2019-03-29T09:09:29.957Z,76.50
2019-03-29T09:12:13.356Z,76.40
2019-03-29T09:14:31.647Z,76.60
2019-03-29T09:17:01.665Z,76.50
2019-03-29T09:19:31.549Z,76.30
2019-03-29T09:22:01.337Z,76.50
2019-03-29T09:24:31.130Z,76.40
2019-03-29T09:27:00.929Z,76.10
2019-03-29T09:29:30.714Z,75.90
2019-03-29T09:32:00.526Z,75.90
2019-03-29T09:34:30.322Z,75.80
2019-03-29T09:37:00.382Z,75.70
2019-03-29T09:39:30.286Z,75.50
2019-03-29T09:42:00.078Z,75.50
2019-03-29T09:44:29.871Z,74.30
2019-03-29T09:46:59.682Z,74.40
2019-03-29T09:49:29.471Z,74.30
2019-03-29T09:51:59.282Z,73.50
2019-03-29T09:54:30.117Z,73.60
2019-03-29T09:56:59.919Z,73.70
2019-03-29T09:59:29.751Z,73.20
2019-03-29T10:01:59.607Z,72.80
2019-03-29T10:04:29.429Z,72.70
2019-03-29T10:06:59.223Z,73.10
2019-03-29T10:09:29.016Z,72.90
2019-03-29T10:11:58.827Z,72.40
2019-03-29T10:14:28.627Z,71.80
2019-03-29T10:16:58.461Z,71.40
2019-03-29T10:19:28.260Z,70.30
2019-03-29T10:21:58.047Z,70.90
2019-03-29T10:24:27.822Z,70.00
2019-03-29T10:26:57.614Z,69.10
2019-03-29T10:29:27.456Z,69.40
2019-03-29T10:31:57.244Z,69.60
2019-03-29T10:34:27.022Z,69.40
2019-03-29T10:36:56.826Z,69.00
2019-03-29T10:39:26.628Z,68.80
2019-03-29T10:41:56.423Z,69.10
2019-03-29T10:44:26.232Z,67.00
2019-03-29T10:46:56.156Z,66.70
2019-03-29T10:49:25.946Z,66.60
2019-03-29T10:51:55.738Z,66.50
2019-03-29T10:54:25.541Z,66.50
2019-03-29T10:56:55.311Z,65.90
2019-03-29T10:59:27.698Z,65.70
2019-03-29T11:01:56.572Z,65.40
2019-03-29T11:04:26.433Z,64.50
2019-03-29T11:06:56.212Z,64.10
2019-03-29T11:09:26.090Z,64.50
2019-03-29T11:11:56.030Z,63.60
2019-03-29T11:14:25.826Z,64.50
2019-03-29T11:16:55.604Z,63.60
2019-03-29T11:19:25.405Z,63.20
2019-03-29T11:21:55.196Z,63.00
2019-03-29T11:24:24.990Z,63.00
2019-03-29T11:26:54.792Z,62.90
2019-03-29T11:29:24.566Z,62.10
2019-03-29T11:31:54.350Z,62.60
2019-03-29T11:34:24.127Z,62.40
2019-03-29T11:36:53.924Z,61.50
2019-03-29T11:39:27.237Z,61.20
2019-03-29T11:41:55.251Z,61.30
2019-03-29T11:44:25.033Z,60.90
2019-03-29T11:46:54.822Z,61.10
2019-03-29T11:49:24.602Z,60.80
2019-03-29T11:51:54.391Z,60.30
2019-03-29T11:54:24.192Z,60.40
2019-03-29T11:56:53.996Z,61.10
2019-03-29T11:59:23.862Z,60.90
2019-03-29T12:01:53.655Z,59.20
2019-03-29T12:04:23.533Z,59.10
2019-03-29T12:06:53.317Z,60.10
2019-03-29T12:09:23.179Z,59.00
2019-03-29T12:11:52.973Z,60.00
2019-03-29T12:14:22.759Z,57.80
2019-03-29T12:16:52.537Z,57.30
2019-03-29T12:19:22.343Z,58.60
2019-03-29T12:21:52.191Z,57.30
2019-03-29T12:24:21.991Z,59.00
2019-03-29T12:26:54.906Z,58.10
2019-03-29T12:29:23.259Z,58.50
2019-03-29T12:31:53.041Z,58.70
2019-03-29T12:34:22.830Z,57.60
2019-03-29T12:36:52.616Z,58.00
2019-03-29T12:39:22.421Z,58.30
2019-03-29T12:41:52.215Z,57.20
2019-03-29T12:44:22.100Z,56.10
2019-03-29T12:46:51.870Z,57.50
2019-03-29T12:49:21.674Z,57.20
2019-03-29T12:51:51.466Z,56.90
2019-03-29T12:54:21.256Z,56.90
2019-03-29T12:56:51.052Z,56.90
2019-03-29T12:59:20.836Z,55.90
2019-03-29T13:01:50.629Z,55.40
2019-03-29T13:04:20.410Z,55.00
2019-03-29T13:06:50.203Z,55.80
2019-03-29T13:09:19.977Z,55.30
2019-03-29T13:11:49.768Z,56.40
2019-03-29T13:14:19.546Z,55.80
2019-03-29T13:16:49.344Z,55.10
2019-03-29T13:19:19.118Z,54.90
2019-03-29T13:21:48.916Z,56.00
2019-03-29T13:24:18.712Z,54.90
2019-03-29T13:26:48.513Z,55.30
2019-03-29T13:29:18.294Z,53.40
2019-03-29T13:31:48.110Z,53.80
2019-03-29T13:34:17.874Z,51.40
2019-03-29T13:36:47.671Z,50.10
2019-03-29T13:39:17.448Z,47.90
2019-03-29T13:41:47.247Z,42.00
2019-03-29T13:44:23.633Z,35.60
2019-03-29T13:46:48.507Z,31.60
2019-03-29T13:49:18.311Z,29.70
2019-03-29T13:51:48.097Z,28.60
2019-03-29T13:54:17.880Z,27.90
2019-03-29T13:56:47.663Z,28.20
2019-03-29T13:59:17.455Z,27.30
2019-03-29T14:01:47.244Z,27.00
2019-03-29T14:04:17.035Z,26.60
2019-03-29T14:06:46.815Z,25.80
2019-03-29T14:09:16.609Z,26.80
2019-03-29T14:11:47.289Z,25.70
2019-03-29T14:14:17.081Z,25.30
2019-03-29T14:16:46.880Z,25.30
2019-03-29T14:19:16.681Z,24.60
2019-03-29T14:21:46.469Z,24.00
2019-03-29T14:24:16.409Z,24.90
2019-03-29T14:26:46.213Z,24.00
2019-03-29T14:29:16.020Z,23.90
2019-03-29T14:31:45.832Z,24.10
2019-03-29T14:34:15.605Z,24.60
2019-03-29T14:36:45.402Z,24.20
2019-03-29T14:39:15.175Z,24.10
2019-03-29T14:41:45.036Z,23.70
2019-03-29T14:44:14.825Z,23.70
2019-03-29T14:46:44.614Z,23.70
2019-03-29T14:49:14.403Z,24.30
2019-03-29T14:51:45.263Z,24.70
2019-03-29T14:54:15.045Z,24.90
2019-03-29T14:56:44.824Z,24.90
2019-03-29T14:59:14.623Z,26.30
2019-03-29T15:01:44.411Z,26.30
2019-03-29T15:04:14.195Z,27.30
2019-03-29T15:06:44.051Z,27.80
2019-03-29T15:09:13.835Z,28.40
2019-03-29T15:11:43.627Z,29.40
2019-03-29T15:14:13.420Z,29.20
2019-03-29T15:16:44.263Z,29.40
2019-03-29T15:19:14.061Z,29.90
2019-03-29T15:21:43.850Z,30.90
2019-03-29T15:24:13.636Z,30.90
2019-03-29T15:26:43.484Z,30.80
2019-03-29T15:29:13.285Z,30.90
2019-03-29T15:31:43.061Z,31.10
2019-03-29T15:34:12.878Z,31.60
2019-03-29T15:36:42.650Z,32.10
2019-03-29T15:39:12.461Z,32.30
2019-03-29T15:41:42.259Z,33.00
2019-03-29T15:44:12.030Z,32.10
2019-03-29T15:46:41.830Z,33.10
2019-03-29T15:49:11.615Z,34.60
2019-03-29T15:51:41.415Z,36.10
2019-03-29T15:54:11.189Z,37.40
2019-03-29T15:56:40.974Z,38.70
2019-03-29T15:59:10.770Z,40.20
2019-03-29T16:01:40.551Z,41.20
2019-03-29T16:04:10.338Z,42.10
2019-03-29T16:06:40.135Z,42.80
2019-03-29T16:09:09.907Z,43.60
2019-03-29T16:11:39.690Z,43.90
2019-03-29T16:14:09.473Z,44.80
2019-03-29T16:16:39.276Z,45.30
2019-03-29T16:19:09.046Z,46.00
2019-03-29T16:21:38.924Z,46.40
2019-03-29T16:24:08.715Z,47.30
2019-03-29T16:26:38.503Z,48.10
2019-03-29T16:29:08.298Z,48.60
2019-03-29T16:31:38.094Z,49.20
2019-03-29T16:34:07.877Z,49.50
2019-03-29T16:36:37.691Z,49.90
2019-03-29T16:39:08.318Z,50.20
2019-03-29T16:41:38.129Z,50.70
2019-03-29T16:44:07.898Z,50.80
2019-03-29T16:46:37.690Z,51.00
2019-03-29T16:49:07.467Z,51.50
2019-03-29T16:51:37.250Z,51.90
2019-03-29T16:54:08.113Z,52.10
2019-03-29T16:56:37.973Z,52.20
2019-03-29T16:59:08.732Z,52.50
2019-03-29T17:01:38.519Z,52.80
2019-03-29T17:04:09.366Z,53.10
2019-03-29T17:06:39.155Z,53.20
2019-03-29T17:09:08.954Z,53.40
2019-03-29T17:11:38.818Z,53.40
2019-03-29T17:14:08.684Z,53.20
2019-03-29T17:16:38.474Z,53.40
2019-03-29T17:19:08.259Z,53.60
2019-03-29T17:21:38.120Z,54.00
2019-03-29T17:24:07.918Z,54.30
2019-03-29T17:26:37.776Z,54.50
2019-03-29T17:29:07.571Z,54.60
2019-03-29T17:31:37.348Z,54.60
2019-03-29T17:34:07.138Z,55.00
2019-03-29T17:36:36.921Z,54.70
2019-03-29T17:39:07.160Z,55.00
2019-03-29T17:41:37.014Z,55.10
2019-03-29T17:44:15.744Z,55.40
2019-03-29T17:46:45.613Z,55.80
2019-03-29T17:49:15.417Z,55.90
2019-03-29T17:51:45.194Z,56.00
2019-03-29T17:54:14.966Z,56.20
2019-03-29T17:56:44.749Z,56.50
2019-03-29T17:59:14.546Z,57.10
2019-03-29T18:01:44.322Z,56.70
2019-03-29T18:04:14.118Z,56.50
2019-03-29T18:06:46.855Z,56.70
2019-03-29T18:09:15.420Z,56.80
2019-03-29T18:11:45.206Z,57.10
2019-03-29T18:14:16.144Z,56.10
2019-03-29T18:16:45.944Z,56.20
2019-03-29T18:19:15.737Z,56.20
2019-03-29T18:21:45.536Z,56.60
2019-03-29T18:24:15.334Z,56.60
2019-03-29T18:26:45.140Z,56.60
2019-03-29T18:29:14.898Z,57.00
2019-03-29T18:31:46.216Z,57.30
2019-03-29T18:34:16.454Z,57.30
2019-03-29T18:36:47.938Z,57.60
2019-03-29T18:39:17.800Z,58.00
2019-03-29T18:41:47.575Z,58.30
2019-03-29T18:44:17.452Z,59.20
2019-03-29T18:46:47.252Z,58.60
2019-03-29T18:49:17.164Z,59.00
2019-03-29T18:51:47.911Z,58.40
2019-03-29T18:54:17.686Z,58.50
2019-03-29T18:56:47.472Z,58.50
2019-03-29T18:59:17.282Z,58.50
2019-03-29T19:01:47.063Z,58.40
2019-03-29T19:04:16.874Z,58.50
2019-03-29T19:06:46.646Z,58.60
2019-03-29T19:09:16.462Z,59.50
2019-03-29T19:11:46.286Z,59.60
2019-03-29T19:14:16.056Z,59.30
2019-03-29T19:16:58.237Z,59.60
2019-03-29T19:19:17.307Z,59.30
2019-03-29T19:21:47.143Z,59.60
2019-03-29T19:24:16.957Z,59.60
2019-03-29T19:26:46.748Z,59.60
2019-03-29T19:29:16.551Z,59.90
2019-03-29T19:31:46.348Z,59.90
2019-03-29T19:34:16.115Z,59.90
2019-03-29T19:36:45.904Z,60.10
2019-03-29T19:39:15.708Z,60.10
2019-03-29T19:41:45.502Z,60.00
2019-03-29T19:44:15.278Z,60.20
2019-03-29T19:46:45.077Z,60.30
2019-03-29T19:49:14.935Z,61.00
2019-03-29T19:51:44.730Z,60.50
2019-03-29T19:54:14.510Z,60.50
2019-03-29T19:56:44.311Z,60.60
2019-03-29T19:59:14.076Z,60.60
2019-03-29T20:01:43.919Z,60.80
2019-03-29T20:04:14.383Z,61.10
2019-03-29T20:06:44.238Z,61.10
2019-03-29T20:09:14.018Z,61.30
2019-03-29T20:11:43.797Z,61.30
2019-03-29T20:14:13.660Z,61.40
2019-03-29T20:16:43.436Z,61.50
2019-03-29T20:19:13.236Z,61.70
2019-03-29T20:21:43.002Z,61.70
2019-03-29T20:24:12.791Z,61.70
2019-03-29T20:26:42.564Z,61.80
2019-03-29T20:29:12.360Z,62.10
2019-03-29T20:31:42.131Z,62.10
2019-03-29T20:34:11.941Z,62.00
2019-03-29T20:36:41.717Z,62.30
2019-03-29T20:39:11.508Z,62.40
2019-03-29T20:41:41.289Z,62.60
2019-03-29T20:44:11.076Z,62.80
2019-03-29T20:46:41.581Z,63.00
2019-03-29T20:49:12.827Z,63.00
2019-03-29T20:51:43.676Z,63.30
2019-03-29T20:54:13.468Z,63.40
2019-03-29T20:56:43.248Z,63.40
2019-03-29T20:59:13.029Z,63.30
2019-03-29T21:01:42.830Z,63.60
2019-03-29T21:04:12.618Z,63.60
2019-03-29T21:06:42.410Z,63.70
2019-03-29T21:09:12.193Z,63.90
2019-03-29T21:11:42.076Z,63.80
2019-03-29T21:14:11.846Z,64.20
2019-03-29T21:16:41.628Z,64.00
2019-03-29T21:19:11.432Z,64.20
2019-03-29T21:21:41.232Z,64.60
2019-03-29T21:24:11.036Z,65.10
2019-03-29T21:26:40.810Z,64.50
2019-03-29T21:29:10.657Z,64.70
2019-03-29T21:31:40.480Z,64.90
2019-03-29T21:34:10.253Z,65.00
2019-03-29T21:36:40.016Z,65.10
2019-03-29T21:39:11.531Z,65.20
2019-03-29T21:41:41.524Z,65.40
2019-03-29T21:44:11.409Z,65.70
2019-03-29T21:46:41.221Z,65.40
2019-03-29T21:49:11.038Z,65.60
2019-03-29T21:51:40.866Z,65.80
2019-03-29T21:54:13.188Z,66.00
2019-03-29T21:56:42.991Z,66.10
2019-03-29T21:59:12.861Z,66.30
2019-03-29T22:01:42.629Z,66.50
2019-03-29T22:04:12.947Z,66.50
2019-03-29T22:06:42.731Z,66.40
2019-03-29T22:09:12.517Z,66.20
2019-03-29T22:11:42.323Z,66.40
2019-03-29T22:14:12.119Z,66.30
2019-03-29T22:16:42.742Z,66.30
2019-03-29T22:19:12.626Z,66.30
2019-03-29T22:21:42.414Z,66.60
2019-03-29T22:24:12.294Z,66.80
2019-03-29T22:26:42.072Z,66.70
2019-03-29T22:29:11.967Z,66.70
2019-03-29T22:31:41.790Z,66.90
2019-03-29T22:34:11.580Z,67.00
2019-03-29T22:36:43.042Z,66.70
2019-03-29T22:39:12.855Z,66.80
2019-03-29T22:41:42.711Z,66.90
2019-03-29T22:44:12.511Z,66.80
2019-03-29T22:46:45.295Z,67.00
2019-03-29T22:49:17.178Z,66.80
2019-03-29T22:51:46.676Z,66.60
2019-03-29T22:54:16.455Z,66.70
2019-03-29T22:56:46.276Z,67.60
2019-03-29T22:59:16.072Z,66.50
2019-03-29T23:01:47.714Z,67.00
2019-03-29T23:04:17.505Z,67.10
2019-03-29T23:06:47.455Z,67.10
2019-03-29T23:09:17.464Z,67.10
2019-03-29T23:11:47.560Z,67.00
2019-03-29T23:14:17.434Z,67.10
2019-03-29T23:16:47.237Z,67.00
2019-03-29T23:19:17.147Z,66.90
2019-03-29T23:21:47.241Z,67.20
2019-03-29T23:24:17.141Z,67.50
2019-03-29T23:26:47.194Z,67.60
2019-03-29T23:29:18.084Z,67.80
2019-03-29T23:31:48.215Z,67.60
2019-03-29T23:34:18.187Z,67.70
2019-03-29T23:36:47.991Z,67.80
2019-03-29T23:39:19.156Z,67.70
2019-03-29T23:41:48.907Z,67.60
2019-03-29T23:44:18.674Z,67.70
2019-03-29T23:46:48.539Z,68.00
2019-03-29T23:49:21.274Z,68.90
2019-03-29T23:51:49.860Z,68.20
2019-03-29T23:54:22.646Z,68.30
2019-03-29T23:56:52.456Z,68.20
2019-03-29T23:59:22.224Z,68.30
